Terminal Aerodrome Forecast
Issued by NWS

Current Version | Previous Version | Graphics & Text | Print | Product List | Glossary On
Versions: 1 2 3 4 5 6 7 8 9 10 11 12 13 14 15 16 17 18 19 20 21 22 23
504
FTUS41 KRLX 250257 AAA
TAFCKB
TAF AMD
KCKB 250257Z 2503/2524 08006KT P6SM OVC045
     FM250900 04003KT 4SM BR OVC025
     FM251500 31005KT P6SM -SHRA OVC010=

USA.gov is the U.S. government's official web portal to all federal, state and local government web resources and services.